Time;durP1;ratioP1;P1;durP2;ratioP2;P2;SDS_P1;SDS_P2;PMS_P1;PMS_P2;Temp;Humidity;BMP_temperature;BMP_pressure;BME280_temperature;BME280_humidity;BME280_pressure;Samples;Min_cycle;Max_cycle;Signal;HPM_P1;HPM_P2
2022/08/07 00:01:25;;;;;;;2.70;1.58;;;22.10;57.70;;;;;;5105976;28;20033;-71
2022/08/07 00:03:51;;;;;;;1.88;1.33;;;22.10;57.60;;;;;;5113439;28;20024;-71
2022/08/07 00:06:19;;;;;;;3.42;1.35;;;22.10;57.40;;;;;;5114503;28;20146;-68
2022/08/07 00:08:44;;;;;;;3.25;1.38;;;22.10;57.30;;;;;;5113798;28;20030;-69
2022/08/07 00:11:10;;;;;;;5.85;1.65;;;22.10;57.10;;;;;;5113143;28;20020;-69
2022/08/07 00:13:36;;;;;;;2.08;1.27;;;22.10;57.00;;;;;;5095880;28;20529;-70
2022/08/07 00:16:04;;;;;;;3.92;1.20;;;22.10;57.00;;;;;;5095096;28;20551;-69
2022/08/07 00:18:31;;;;;;;2.25;1.10;;;22.10;56.90;;;;;;5094949;28;20031;-69
2022/08/07 00:21:02;;;;;;;1.83;1.48;;;22.10;56.70;;;;;;5097550;28;20041;-69
2022/08/07 00:23:29;;;;;;;1.85;1.50;;;22.10;56.70;;;;;;5114971;28;20070;-69
2022/08/07 00:25:55;;;;;;;2.67;1.50;;;22.10;56.30;;;;;;5115200;28;20023;-68
2022/08/07 00:28:22;;;;;;;1.38;1.27;;;22.20;56.10;;;;;;5113573;28;20019;-68
2022/08/07 00:30:48;;;;;;;1.75;1.15;;;22.10;55.80;;;;;;5114721;28;20027;-67
2022/08/07 00:33:14;;;;;;;3.00;1.42;;;22.20;54.70;;;;;;5113259;28;20024;-67
2022/08/07 00:35:40;;;;;;;2.65;1.40;;;22.20;54.80;;;;;;5115071;28;20032;-68
2022/08/07 00:38:06;;;;;;;2.92;1.35;;;22.20;54.80;;;;;;5115061;28;20031;-68
2022/08/07 00:40:32;;;;;;;1.20;1.10;;;22.20;54.70;;;;;;5114748;28;20024;-67
2022/08/07 00:42:58;;;;;;;1.30;1.10;;;22.20;54.50;;;;;;5113993;28;20057;-67
2022/08/07 00:45:24;;;;;;;2.85;1.33;;;22.30;54.30;;;;;;5114211;28;20024;-67
2022/08/07 00:47:50;;;;;;;2.42;1.35;;;22.30;53.80;;;;;;5107966;28;20492;-69
2022/08/07 00:50:16;;;;;;;3.03;1.02;;;22.30;53.80;;;;;;5094531;28;20484;-76
2022/08/07 00:52:43;;;;;;;1.35;1.08;;;22.40;53.60;;;;;;5094471;28;20024;-74
2022/08/07 00:55:09;;;;;;;2.10;1.17;;;22.40;53.30;;;;;;5094332;28;20020;-76
2022/08/07 00:57:35;;;;;;;1.17;1.05;;;22.40;53.40;;;;;;5103452;28;20032;-75
2022/08/07 01:00:06;;;;;;;1.60;1.15;;;22.40;53.40;;;;;;5114743;28;20027;-76
2022/08/07 01:02:33;;;;;;;1.77;1.13;;;22.40;53.20;;;;;;5114563;28;20077;-75
2022/08/07 01:04:59;;;;;;;2.10;1.30;;;22.50;53.60;;;;;;5114282;28;20418;-75
2022/08/07 01:07:26;;;;;;;1.30;1.20;;;22.50;53.40;;;;;;5114405;28;20016;-77
2022/08/07 01:09:52;;;;;;;1.83;1.23;;;22.50;53.40;;;;;;5114324;28;20023;-75
2022/08/07 01:12:18;;;;;;;1.75;1.13;;;22.50;53.50;;;;;;5094113;28;20020;-76
2022/08/07 01:14:44;;;;;;;1.30;1.00;;;22.50;53.50;;;;;;5092590;28;20130;-75
2022/08/07 01:17:11;;;;;;;3.00;1.20;;;22.50;53.30;;;;;;5093809;28;20047;-75
2022/08/07 01:19:38;;;;;;;1.35;1.25;;;22.50;53.20;;;;;;5093769;28;20027;-75
2022/08/07 01:22:04;;;;;;;1.10;0.90;;;22.50;53.20;;;;;;5093511;28;20097;-76
2022/08/07 01:24:31;;;;;;;4.30;1.00;;;22.50;53.10;;;;;;5093599;28;20542;-75
2022/08/07 01:26:58;;;;;;;4.30;1.30;;;22.50;53.10;;;;;;5098326;28;20035;-74
2022/08/07 01:29:26;;;;;;;2.00;1.05;;;22.50;52.90;;;;;;5113978;28;20100;-75
2022/08/07 01:31:52;;;;;;;1.67;1.40;;;22.40;52.80;;;;;;5113976;28;20024;-74
2022/08/07 01:34:19;;;;;;;1.85;1.10;;;22.40;52.30;;;;;;5114222;28;20020;-76
2022/08/07 01:36:47;;;;;;;2.55;1.17;;;22.40;51.60;;;;;;5113938;28;20035;-76
2022/08/07 01:39:13;;;;;;;2.72;0.95;;;22.40;51.80;;;;;;5113898;28;20016;-74
2022/08/07 01:41:42;;;;;;;2.08;1.20;;;22.40;52.10;;;;;;5113820;28;20028;-75
2022/08/07 01:44:09;;;;;;;1.92;1.20;;;22.40;52.00;;;;;;5113791;28;20016;-75
2022/08/07 01:46:35;;;;;;;1.52;1.23;;;22.40;51.60;;;;;;5113724;28;20030;-76
2022/08/07 01:49:01;;;;;;;1.83;1.63;;;22.40;51.60;;;;;;5114070;28;20367;-76
2022/08/07 01:51:29;;;;;;;5.93;4.05;;;22.40;51.70;;;;;;5113688;28;20023;-77
2022/08/07 01:53:59;;;;;;;2.33;2.10;;;22.50;51.70;;;;;;5113555;28;20015;-76
2022/08/07 01:56:32;;;;;;;1.70;1.60;;;22.50;51.80;;;;;;5112175;28;20038;-74
2022/08/07 01:59:05;;;;;;;2.47;1.52;;;22.50;51.70;;;;;;5108963;28;20068;-77
2022/08/07 02:01:36;;;;;;;3.80;1.55;;;22.60;51.80;;;;;;5093248;28;20028;-75
2022/08/07 02:04:11;;;;;;;1.80;1.42;;;22.60;51.60;;;;;;5093192;28;20031;-76
2022/08/07 02:06:39;;;;;;;3.65;1.15;;;22.60;51.20;;;;;;5093098;28;20020;-76
2022/08/07 02:09:10;;;;;;;2.85;1.52;;;22.70;50.90;;;;;;5093049;28;20067;-74
2022/08/07 02:11:40;;;;;;;1.85;1.10;;;22.70;50.40;;;;;;5093064;28;20496;-75
2022/08/07 02:14:07;;;;;;;2.25;1.30;;;22.70;50.20;;;;;;5093267;28;20032;-77
2022/08/07 02:16:35;;;;;;;1.63;1.52;;;22.70;50.20;;;;;;5093021;28;20434;-74
2022/08/07 02:19:04;;;;;;;2.33;1.65;;;22.70;49.80;;;;;;5091760;28;20099;-74
2022/08/07 02:21:33;;;;;;;3.13;1.48;;;22.60;49.60;;;;;;5092792;28;20036;-75
2022/08/07 02:23:59;;;;;;;8.57;1.38;;;22.70;50.30;;;;;;5091605;28;20066;-77
2022/08/07 02:26:26;;;;;;;2.60;1.35;;;22.60;49.20;;;;;;5093141;28;20048;-75
2022/08/07 02:28:54;;;;;;;1.60;1.40;;;22.60;49.30;;;;;;5112577;28;20028;-77
2022/08/07 02:31:20;;;;;;;2.17;1.52;;;22.60;49.20;;;;;;5113244;28;20012;-77
2022/08/07 02:33:48;;;;;;;3.28;1.40;;;22.70;49.50;;;;;;5113178;28;20032;-76
2022/08/07 02:36:15;;;;;;;4.82;1.40;;;22.70;49.30;;;;;;5111964;28;20028;-76
2022/08/07 02:38:42;;;;;;;3.67;1.60;;;22.70;49.30;;;;;;5113181;28;20019;-76
2022/08/07 02:41:09;;;;;;;4.10;1.40;;;22.60;48.60;;;;;;5113266;28;20024;-75
2022/08/07 02:43:37;;;;;;;2.10;1.60;;;22.60;48.80;;;;;;5111885;28;20449;-76
2022/08/07 02:46:05;;;;;;;3.05;1.50;;;22.70;48.80;;;;;;5113031;28;20058;-77
2022/08/07 02:48:31;;;;;;;2.67;1.50;;;22.60;48.70;;;;;;5113062;28;20376;-76
2022/08/07 02:51:03;;;;;;;2.00;1.27;;;22.70;48.80;;;;;;5113125;28;20110;-75
2022/08/07 02:53:36;;;;;;;3.00;1.65;;;22.70;48.60;;;;;;5112991;28;20022;-76
2022/08/07 02:56:05;;;;;;;2.00;1.52;;;22.60;48.70;;;;;;5111822;28;20110;-75
2022/08/07 02:58:33;;;;;;;1.38;1.23;;;22.70;48.70;;;;;;5111443;28;20030;-75
2022/08/07 03:01:00;;;;;;;3.60;1.58;;;22.60;48.50;;;;;;5112977;28;20020;-75
2022/08/07 03:03:29;;;;;;;1.73;1.42;;;22.60;48.30;;;;;;5112966;28;20031;-75
2022/08/07 03:05:56;;;;;;;3.17;1.42;;;22.60;48.20;;;;;;5112866;28;20099;-76
2022/08/07 03:08:23;;;;;;;3.75;1.40;;;22.50;48.20;;;;;;5105233;28;20043;-76
2022/08/07 03:10:49;;;;;;;1.85;1.30;;;22.50;48.40;;;;;;5096342;28;20103;-77
2022/08/07 03:13:16;;;;;;;2.40;1.30;;;22.50;48.40;;;;;;5096287;28;20020;-74
2022/08/07 03:15:43;;;;;;;1.80;1.23;;;22.40;48.40;;;;;;5096233;28;20025;-76
2022/08/07 03:18:10;;;;;;;1.73;1.25;;;22.50;48.60;;;;;;5096122;28;20431;-76
2022/08/07 03:20:36;;;;;;;3.05;1.35;;;22.50;48.40;;;;;;5096138;28;20103;-76
2022/08/07 03:23:03;;;;;;;1.52;1.05;;;22.40;48.20;;;;;;5095816;28;20498;-75
2022/08/07 03:25:34;;;;;;;2.38;1.48;;;22.50;48.40;;;;;;5095985;28;20032;-73
2022/08/07 03:28:01;;;;;;;2.30;1.27;;;22.40;48.10;;;;;;5106623;28;20035;-73
2022/08/07 03:30:29;;;;;;;1.98;1.30;;;22.50;48.20;;;;;;5116264;27;20518;-75
2022/08/07 03:32:57;;;;;;;2.15;1.27;;;22.40;48.20;;;;;;5116341;28;20026;-75
2022/08/07 03:35:26;;;;;;;4.13;1.30;;;22.40;47.90;;;;;;5116011;28;20075;-74
2022/08/07 03:37:57;;;;;;;1.48;1.23;;;22.40;47.80;;;;;;5116281;28;20015;-75
2022/08/07 03:40:24;;;;;;;2.25;1.38;;;22.40;47.80;;;;;;5116252;27;20384;-77
2022/08/07 03:42:51;;;;;;;3.55;1.52;;;22.50;47.80;;;;;;5116131;28;20472;-75
2022/08/07 03:45:19;;;;;;;3.05;1.40;;;22.50;47.60;;;;;;5116024;28;20031;-74
2022/08/07 03:47:45;;;;;;;2.58;1.05;;;22.50;47.50;;;;;;5114765;28;20020;-76
2022/08/07 03:50:11;;;;;;;1.30;1.20;;;22.40;47.30;;;;;;5115966;28;20090;-76
2022/08/07 03:52:38;;;;;;;5.15;1.10;;;22.40;47.50;;;;;;5115952;27;20026;-75
2022/08/07 03:55:04;;;;;;;3.15;1.60;;;22.40;47.50;;;;;;5115829;28;20032;-75
2022/08/07 03:57:31;;;;;;;2.67;1.10;;;22.40;47.40;;;;;;5114221;28;20032;-76
2022/08/07 03:59:58;;;;;;;3.75;1.25;;;22.40;47.30;;;;;;5115872;28;20441;-76
2022/08/07 04:02:24;;;;;;;4.43;1.20;;;22.30;47.40;;;;;;5115773;28;20030;-76
2022/08/07 04:04:51;;;;;;;3.58;1.50;;;22.30;47.60;;;;;;5115857;28;20047;-75
2022/08/07 04:07:20;;;;;;;2.80;1.30;;;22.30;47.50;;;;;;5102328;28;20381;-74
2022/08/07 04:09:47;;;;;;;2.60;1.33;;;22.30;47.60;;;;;;5095359;28;20035;-75
2022/08/07 04:12:16;;;;;;;3.53;1.08;;;22.30;47.60;;;;;;5095290;28;20020;-76
2022/08/07 04:14:43;;;;;;;3.75;1.30;;;22.30;48.00;;;;;;5095248;28;20052;-77
2022/08/07 04:17:09;;;;;;;2.30;1.38;;;22.30;47.40;;;;;;5095155;28;20028;-74
2022/08/07 04:19:35;;;;;;;2.33;0.98;;;22.30;47.40;;;;;;5095106;28;20051;-75
2022/08/07 04:22:02;;;;;;;1.48;1.38;;;22.30;47.50;;;;;;5094938;28;20079;-75
2022/08/07 04:24:28;;;;;;;1.40;1.10;;;22.20;47.30;;;;;;5094950;28;20044;-75
2022/08/07 04:26:56;;;;;;;3.42;1.30;;;22.20;47.10;;;;;;5100003;28;20024;-76
2022/08/07 04:29:23;;;;;;;2.75;1.27;;;22.20;47.10;;;;;;5115340;28;20042;-75
2022/08/07 04:31:49;;;;;;;1.77;1.20;;;22.20;47.20;;;;;;5115294;28;20027;-77
2022/08/07 04:34:16;;;;;;;2.95;1.40;;;22.20;47.40;;;;;;5115274;28;20076;-76
2022/08/07 04:36:42;;;;;;;2.05;1.00;;;22.20;47.20;;;;;;5113946;28;20038;-75
2022/08/07 04:39:08;;;;;;;2.55;1.45;;;22.30;47.10;;;;;;5115207;28;20102;-75
2022/08/07 04:41:34;;;;;;;2.90;1.40;;;22.30;46.60;;;;;;5115091;28;20051;-76
2022/08/07 04:44:01;;;;;;;1.50;1.08;;;22.30;46.40;;;;;;5115007;28;20020;-76
2022/08/07 04:46:53;;;;;;;2.08;1.25;;;22.30;46.30;;;;;;5114872;28;20023;-73
2022/08/07 04:49:57;;;;;;;2.38;1.13;;;22.30;46.10;;;;;;5114991;28;20043;-74
2022/08/07 04:52:56;;;;;;;2.60;1.23;;;22.40;45.80;;;;;;5105661;28;20031;-75
2022/08/07 04:55:30;;;;;;;1.80;1.10;;;22.40;45.80;;;;;;5113564;28;20481;-76
2022/08/07 04:57:56;;;;;;;1.45;0.90;;;22.40;45.60;;;;;;5113218;28;20039;-75
2022/08/07 05:00:39;;;;;;;2.85;1.10;;;22.40;45.90;;;;;;5113538;28;20027;-76
2022/08/07 05:03:22;;;;;;;1.35;0.80;;;22.40;46.10;;;;;;5113364;28;20027;-75
2022/08/07 05:06:10;;;;;;;0.70;0.70;;;22.50;46.90;;;;;;5101835;28;20029;-74
2022/08/07 05:09:01;;;;;;;2.22;1.02;;;22.50;46.40;;;;;;5094205;28;20209;-73
2022/08/07 05:11:32;;;;;;;1.52;1.00;;;22.50;45.90;;;;;;5093796;28;20075;-74
2022/08/07 05:14:22;;;;;;;2.75;1.10;;;22.50;45.90;;;;;;5094072;28;20069;-75
2022/08/07 05:16:51;;;;;;;1.48;0.98;;;22.50;46.30;;;;;;5094025;28;20366;-74
2022/08/07 05:19:20;;;;;;;1.92;1.10;;;22.60;46.30;;;;;;5093980;28;20477;-74
2022/08/07 05:21:57;;;;;;;1.10;0.80;;;22.60;46.50;;;;;;5093916;28;20048;-75
2022/08/07 05:24:24;;;;;;;1.23;0.90;;;22.70;46.80;;;;;;5093904;28;20024;-76
2022/08/07 05:26:55;;;;;;;1.55;1.08;;;22.80;46.70;;;;;;5096134;28;20088;-77
2022/08/07 05:29:23;;;;;;;1.25;0.80;;;22.80;46.60;;;;;;5114028;28;20048;-74
2022/08/07 05:31:51;;;;;;;1.38;0.85;;;22.90;46.50;;;;;;5114071;28;20069;-77
2022/08/07 05:34:18;;;;;;;1.30;0.93;;;23.00;46.70;;;;;;5114031;28;20024;-76
2022/08/07 05:36:52;;;;;;;0.85;0.77;;;23.10;46.60;;;;;;5114015;28;20031;-75
2022/08/07 05:39:20;;;;;;;3.95;0.80;;;23.10;45.80;;;;;;5112674;28;20473;-77
2022/08/07 05:41:48;;;;;;;1.80;0.98;;;23.20;45.70;;;;;;5113915;28;20032;-72
2022/08/07 05:44:17;;;;;;;1.40;0.75;;;23.30;45.90;;;;;;5113858;28;20034;-75
2022/08/07 05:46:44;;;;;;;1.73;1.02;;;23.30;45.80;;;;;;5112442;28;20028;-77
2022/08/07 05:49:12;;;;;;;0.98;0.80;;;23.40;45.90;;;;;;5113823;28;20015;-76
2022/08/07 05:51:38;;;;;;;0.82;0.70;;;23.40;45.80;;;;;;5113816;28;20027;-76
2022/08/07 05:54:04;;;;;;;0.93;0.77;;;23.50;45.90;;;;;;5112451;28;20076;-74
2022/08/07 05:56:32;;;;;;;0.82;0.80;;;23.50;45.60;;;;;;5112015;28;20469;-76
2022/08/07 05:59:01;;;;;;;2.65;1.02;;;23.60;45.60;;;;;;5113686;28;20034;-78
2022/08/07 06:01:29;;;;;;;1.13;0.80;;;23.70;45.30;;;;;;5113619;28;20031;-76
2022/08/07 06:03:56;;;;;;;1.52;0.85;;;23.80;45.10;;;;;;5105259;28;20382;-76
2022/08/07 06:06:23;;;;;;;0.82;0.75;;;23.80;45.30;;;;;;5093131;28;20489;-76
2022/08/07 06:08:51;;;;;;;1.35;0.90;;;23.90;44.80;;;;;;5091927;28;20050;-75
2022/08/07 06:11:17;;;;;;;1.08;0.90;;;23.90;44.50;;;;;;5093101;28;20539;-77
2022/08/07 06:13:43;;;;;;;1.40;0.77;;;23.90;44.70;;;;;;5093114;28;20031;-76
2022/08/07 06:16:09;;;;;;;2.70;0.85;;;24.00;44.50;;;;;;5093103;28;20028;-77
2022/08/07 06:18:36;;;;;;;3.80;1.10;;;24.00;43.90;;;;;;5092096;28;20363;-77
2022/08/07 06:21:03;;;;;;;1.38;0.70;;;24.00;43.80;;;;;;5092849;28;20522;-76
2022/08/07 06:23:30;;;;;;;2.08;0.80;;;24.00;43.00;;;;;;5093059;28;20039;-76
2022/08/07 06:26:00;;;;;;;1.50;0.77;;;24.00;42.90;;;;;;5092905;28;20036;-76
2022/08/07 06:28:26;;;;;;;4.80;1.00;;;24.10;43.30;;;;;;5109919;28;20015;-75
2022/08/07 06:30:52;;;;;;;1.67;0.82;;;24.10;42.50;;;;;;5113264;28;20392;-77
2022/08/07 06:33:19;;;;;;;2.58;0.85;;;24.00;42.40;;;;;;5113355;28;20095;-75
2022/08/07 06:35:45;;;;;;;1.23;0.70;;;24.00;41.80;;;;;;5113294;28;20019;-76
2022/08/07 06:38:11;;;;;;;1.20;0.90;;;24.10;42.10;;;;;;5113287;28;20023;-76
2022/08/07 06:40:44;;;;;;;1.33;0.80;;;24.10;42.00;;;;;;5111971;28;20477;-75
2022/08/07 06:43:11;;;;;;;;;;;24.10;42.70;;;;;;5116654;28;20016;-75
2022/08/07 06:45:36;;;;;;;5.47;1.08;;;24.20;43.50;;;;;;5117247;28;19911;-77
2022/08/07 06:48:05;;;;;;;1.38;0.77;;;24.30;41.90;;;;;;5117254;28;20043;-73
2022/08/07 06:50:35;;;;;;;1.15;0.63;;;24.40;42.30;;;;;;5117183;28;20019;-77
2022/08/07 06:53:03;;;;;;;2.28;1.00;;;24.40;42.30;;;;;;5115795;28;20028;-77
2022/08/07 06:55:30;;;;;;;4.18;0.90;;;24.50;41.10;;;;;;5117094;28;20028;-76
2022/08/07 06:58:02;;;;;;;0.77;0.75;;;24.50;41.40;;;;;;5114113;28;20471;-75
2022/08/07 07:00:33;;;;;;;3.10;1.20;;;24.60;41.90;;;;;;5117055;28;20059;-77
2022/08/07 07:03:00;;;;;;;1.38;0.80;;;24.70;40.20;;;;;;5104172;28;20020;-77
2022/08/07 07:05:25;;;;;;;1.10;0.93;;;24.80;40.60;;;;;;5096319;28;20050;-77
2022/08/07 07:07:51;;;;;;;2.05;0.93;;;24.90;40.50;;;;;;5096426;28;20024;-75
2022/08/07 07:10:26;;;;;;;1.27;0.90;;;24.90;40.80;;;;;;5096313;28;20065;-75
2022/08/07 07:12:57;;;;;;;1.50;1.10;;;24.90;39.70;;;;;;5096463;28;20020;-76
2022/08/07 07:15:26;;;;;;;9.27;1.38;;;25.00;39.80;;;;;;5096323;28;20031;-75
2022/08/07 07:18:07;;;;;;;3.92;1.30;;;24.90;38.70;;;;;;5096330;28;20024;-77
2022/08/07 07:20:36;;;;;;;1.45;1.08;;;24.90;38.90;;;;;;5095014;28;20026;-75
2022/08/07 07:23:05;;;;;;;1.25;1.00;;;24.80;38.90;;;;;;5095915;28;20076;-74
2022/08/07 07:25:32;;;;;;;2.20;1.33;;;24.80;39.80;;;;;;5096056;28;20348;-75
2022/08/07 07:28:17;;;;;;;4.97;1.70;;;24.90;39.80;;;;;;5109419;28;20069;-77
2022/08/07 07:30:49;;;;;;;2.53;1.35;;;24.90;39.70;;;;;;5096053;28;20069;-75
2022/08/07 07:33:17;;;;;;;2.92;1.50;;;24.90;39.50;;;;;;5096014;28;20367;-75
2022/08/07 07:35:46;;;;;;;2.33;1.30;;;25.00;39.60;;;;;;5095924;28;20052;-76
2022/08/07 07:38:14;;;;;;;1.25;1.08;;;25.00;39.80;;;;;;5094675;28;20049;-76
2022/08/07 07:40:41;;;;;;;2.03;1.58;;;25.20;40.10;;;;;;5095905;28;20032;-76
2022/08/07 07:43:09;;;;;;;1.98;1.40;;;25.20;39.20;;;;;;5094423;28;20058;-72
2022/08/07 07:45:37;;;;;;;3.03;1.60;;;25.30;39.50;;;;;;5095661;28;20469;-76
2022/08/07 07:48:05;;;;;;;2.90;1.50;;;25.30;39.50;;;;;;5095717;28;20012;-74
2022/08/07 07:50:31;;;;;;;1.88;1.60;;;25.40;38.80;;;;;;5095581;28;20016;-76
2022/08/07 07:52:58;;;;;;;2.13;1.67;;;25.40;39.00;;;;;;5095136;28;20107;-75
2022/08/07 07:55:26;;;;;;;1.73;1.35;;;25.40;39.30;;;;;;5095517;28;20475;-77
2022/08/07 07:57:55;;;;;;;4.05;1.58;;;25.50;39.00;;;;;;5107615;28;20049;-74
2022/08/07 08:00:23;;;;;;;4.60;1.60;;;25.50;38.40;;;;;;5113354;28;20027;-76
2022/08/07 08:02:52;;;;;;;2.38;1.70;;;25.50;38.90;;;;;;5095585;28;20021;-77
2022/08/07 08:05:20;;;;;;;3.03;1.58;;;25.50;38.60;;;;;;5094039;28;20020;-76
2022/08/07 08:07:47;;;;;;;1.50;1.40;;;25.60;38.70;;;;;;5095345;28;20022;-76
2022/08/07 08:10:14;;;;;;;2.17;1.40;;;25.60;38.80;;;;;;5095231;28;20026;-75
2022/08/07 08:12:40;;;;;;;2.85;1.33;;;25.70;38.80;;;;;;5093967;28;20016;-74
2022/08/07 08:15:07;;;;;;;4.43;1.58;;;25.80;38.60;;;;;;5095192;28;20089;-75
2022/08/07 08:17:35;;;;;;;2.00;1.45;;;25.90;38.90;;;;;;5095121;28;20485;-73
2022/08/07 08:20:06;;;;;;;1.60;1.23;;;26.10;38.40;;;;;;5095029;28;20078;-75
2022/08/07 08:28:17;;;;;;;2.95;1.50;;;26.40;36.70;;;;;;5109369;28;20073;-75
2022/08/07 08:30:44;;;;;;;4.13;1.50;;;26.50;37.30;;;;;;5115316;28;20066;-76
2022/08/07 08:33:17;;;;;;;2.80;1.55;;;26.50;36.80;;;;;;5114021;28;20019;-77
2022/08/07 08:35:47;;;;;;;1.35;1.20;;;26.60;36.90;;;;;;5115189;28;20028;-75
2022/08/07 08:38:16;;;;;;;5.60;1.67;;;26.70;36.70;;;;;;5115174;28;20023;-76
2022/08/07 08:40:54;;;;;;;3.55;1.60;;;26.80;36.90;;;;;;5115158;28;20023;-77
2022/08/07 08:43:48;;;;;;;1.48;1.33;;;26.90;36.70;;;;;;5115077;28;20361;-74
2022/08/07 08:46:47;;;;;;;7.35;1.70;;;27.00;37.40;;;;;;5113622;28;20082;-75
2022/08/07 08:49:22;;;;;;;1.90;1.30;;;27.00;36.50;;;;;;5114882;28;20095;-75
2022/08/07 08:51:58;;;;;;;2.50;1.40;;;27.20;36.70;;;;;;5114917;28;20065;-75
2022/08/07 08:54:40;;;;;;;1.92;1.25;;;27.30;36.80;;;;;;5113696;28;20023;-75
2022/08/07 08:57:16;;;;;;;2.72;1.70;;;27.40;36.50;;;;;;5113218;28;20023;-74
2022/08/07 09:00:15;;;;;;;1.98;1.63;;;27.60;35.60;;;;;;5106057;28;20023;-76
2022/08/07 09:03:28;;;;;;;1.30;1.20;;;27.70;36.30;;;;;;5035168;28;20037;-75
2022/08/07 09:06:08;;;;;;;2.50;1.23;;;27.90;36.20;;;;;;5045674;28;20113;-75
2022/08/07 09:09:01;;;;;;;1.52;1.00;;;28.00;34.90;;;;;;5051813;28;20458;-75
2022/08/07 09:12:08;;;;;;;2.03;1.42;;;28.20;34.90;;;;;;5051731;28;20530;-74
2022/08/07 09:15:05;;;;;;;1.65;1.40;;;28.30;35.30;;;;;;4992365;28;20030;-75
2022/08/07 09:17:57;;;;;;;2.97;1.20;;;28.40;34.80;;;;;;5051704;28;20031;-74
2022/08/07 09:20:44;;;;;;;2.35;1.17;;;28.50;34.40;;;;;;5051475;28;20072;-74
2022/08/07 09:23:24;;;;;;;5.65;4.10;;;28.50;34.20;;;;;;5051196;28;20203;-75
2022/08/07 09:26:17;;;;;;;11.95;7.00;;;28.60;33.80;;;;;;5051425;28;20036;-74
2022/08/07 09:28:51;;;;;;;8.30;4.47;;;28.60;33.80;;;;;;5068993;28;20099;-77
2022/08/07 09:31:40;;;;;;;5.47;2.78;;;28.60;33.70;;;;;;5071394;28;20040;-76
2022/08/07 09:34:45;;;;;;;5.63;4.18;;;28.70;33.40;;;;;;5071361;28;20115;-75
2022/08/07 09:37:34;;;;;;;4.97;3.03;;;28.70;34.10;;;;;;5032242;28;20042;-74
2022/08/07 09:40:41;;;;;;;7.05;4.20;;;28.80;33.50;;;;;;5100311;28;20050;-77
2022/08/07 09:43:17;;;;;;;5.80;4.35;;;28.70;33.80;;;;;;5108225;28;20031;-76
2022/08/07 09:46:11;;;;;;;5.30;3.42;;;28.80;33.70;;;;;;5114104;28;20045;-74
2022/08/07 09:49:17;;;;;;;5.27;3.70;;;28.80;33.60;;;;;;5113815;28;20073;-75
2022/08/07 09:52:12;;;;;;;3.38;1.98;;;28.80;33.90;;;;;;5113597;28;20024;-67
2022/08/07 09:54:45;;;;;;;4.22;2.05;;;29.00;34.00;;;;;;5113855;28;20019;-67
2022/08/07 09:57:23;;;;;;;5.32;2.00;;;29.00;33.80;;;;;;5112221;28;20020;-68
2022/08/07 10:00:06;;;;;;;4.20;2.13;;;29.10;33.70;;;;;;5092038;28;20108;-67
2022/08/07 10:02:51;;;;;;;5.28;2.33;;;29.30;33.80;;;;;;5093305;28;20089;-67
2022/08/07 10:05:34;;;;;;;11.73;2.05;;;29.30;33.30;;;;;;5093166;28;20504;-67
2022/08/07 10:08:15;;;;;;;5.00;2.35;;;29.40;33.60;;;;;;5091895;28;20381;-67
2022/08/07 10:11:13;;;;;;;4.25;2.28;;;29.50;33.50;;;;;;5093143;28;20031;-68
2022/08/07 10:14:17;;;;;;;15.35;2.35;;;29.60;33.70;;;;;;5093160;28;20055;-68
2022/08/07 10:17:05;;;;;;;5.10;2.30;;;29.60;33.60;;;;;;5050490;28;20180;-67
2022/08/07 10:20:12;;;;;;;4.50;2.35;;;29.70;33.30;;;;;;5092593;28;20039;-67
2022/08/07 10:22:40;;;;;;;6.28;2.60;;;29.70;33.30;;;;;;5050451;28;20049;-65
2022/08/07 10:25:17;;;;;;;4.90;1.80;;;29.60;32.50;;;;;;5052335;28;20510;-67
2022/08/07 10:27:50;;;;;;;4.05;1.95;;;29.60;32.70;;;;;;5061745;28;20124;-65
2022/08/07 10:30:32;;;;;;;6.35;2.05;;;29.50;33.10;;;;;;5072761;28;20047;-65
2022/08/07 10:33:34;;;;;;;4.13;2.17;;;29.50;33.20;;;;;;5072782;28;20027;-67
2022/08/07 10:36:22;;;;;;;3.92;1.80;;;29.50;33.30;;;;;;5072752;28;20024;-67
2022/08/07 10:39:20;;;;;;;3.67;1.65;;;29.50;32.60;;;;;;5071495;28;20020;-68
2022/08/07 10:42:00;;;;;;;4.63;2.20;;;29.50;32.60;;;;;;5072796;28;20508;-67
2022/08/07 10:44:44;;;;;;;4.95;2.35;;;29.40;32.40;;;;;;5071419;28;20036;-67
2022/08/07 10:47:32;;;;;;;1.65;1.30;;;29.30;32.90;;;;;;5072760;28;20021;-67
2022/08/07 10:50:32;;;;;;;5.03;2.53;;;29.30;33.10;;;;;;5071430;28;20492;-67
2022/08/07 10:53:19;;;;;;;4.38;2.30;;;29.20;33.30;;;;;;5072622;28;20086;-68
2022/08/07 10:56:22;;;;;;;4.03;2.20;;;29.20;33.30;;;;;;5072621;28;20470;-68
2022/08/07 10:58:56;;;;;;;5.07;2.40;;;29.20;33.60;;;;;;5070293;28;20036;-67
2022/08/07 11:01:31;;;;;;;7.72;2.53;;;29.20;33.80;;;;;;5072619;28;20474;-67
2022/08/07 11:04:16;;;;;;;4.68;2.70;;;29.30;33.80;;;;;;5072503;28;20107;-64
2022/08/07 11:06:59;;;;;;;5.15;2.92;;;29.30;33.40;;;;;;5072440;28;20157;-67
2022/08/07 11:09:30;;;;;;;6.60;2.40;;;29.30;33.60;;;;;;5072528;28;20021;-67
2022/08/07 11:12:21;;;;;;;4.70;2.75;;;29.30;33.80;;;;;;5072443;28;20029;-68
2022/08/07 11:15:02;;;;;;;3.10;2.10;;;29.40;33.90;;;;;;5072265;28;20024;-67
2022/08/07 11:17:45;;;;;;;4.05;2.22;;;29.50;33.90;;;;;;5072424;28;20024;-68
2022/08/07 11:20:22;;;;;;;4.38;2.63;;;29.60;33.60;;;;;;5072400;28;20355;-65
2022/08/07 11:23:13;;;;;;;4.63;2.65;;;29.70;33.50;;;;;;5102732;28;20035;-67
2022/08/07 11:26:04;;;;;;;4.03;2.30;;;29.80;33.40;;;;;;5112815;28;20478;-68
2022/08/07 11:28:53;;;;;;;7.80;2.10;;;29.90;33.30;;;;;;5112658;28;20031;-68
2022/08/07 11:32:01;;;;;;;8.00;2.67;;;30.00;33.60;;;;;;5096042;28;20027;-68
2022/08/07 11:34:42;;;;;;;3.33;1.90;;;30.10;33.00;;;;;;5074249;28;20036;-67
2022/08/07 11:37:26;;;;;;;3.50;2.10;;;30.20;32.80;;;;;;5095953;28;20020;-65
2022/08/07 11:40:07;;;;;;;3.95;2.45;;;30.30;32.70;;;;;;5095945;28;20039;-65
2022/08/07 11:42:51;;;;;;;5.18;2.08;;;30.40;32.30;;;;;;5095844;28;20095;-65
2022/08/07 11:45:51;;;;;;;6.72;1.88;;;30.50;31.70;;;;;;5096030;28;20027;-68
2022/08/07 11:48:52;;;;;;;6.82;2.25;;;30.50;32.00;;;;;;5094382;28;20020;-65
2022/08/07 11:51:17;;;;;;;3.15;2.17;;;30.70;31.90;;;;;;5095627;28;20024;-65
2022/08/07 11:54:14;;;;;;;4.63;2.72;;;30.80;31.80;;;;;;5095532;28;20035;-67
2022/08/07 11:57:17;;;;;;;6.25;2.85;;;30.90;31.50;;;;;;5095274;28;20040;-65
2022/08/07 11:59:46;;;;;;;3.55;2.33;;;31.00;31.10;;;;;;5094298;28;20024;-65
2022/08/07 12:02:36;;;;;;;4.25;1.85;;;31.10;31.00;;;;;;5095408;28;20363;-65
2022/08/07 12:05:39;;;;;;;3.35;2.03;;;31.20;30.90;;;;;;5121019;27;20084;-77
2022/08/07 12:08:26;;;;;;;3.63;2.03;;;31.20;31.10;;;;;;5125097;27;20481;-74
2022/08/07 12:11:02;;;;;;;8.05;5.13;;;31.30;30.90;;;;;;5121053;27;20027;-76
2022/08/07 12:13:41;;;;;;;8.57;7.03;;;31.30;30.90;;;;;;5121952;27;20031;-77
2022/08/07 12:16:16;;;;;;;6.32;4.50;;;31.30;30.50;;;;;;5123097;27;20498;-74
2022/08/07 12:18:54;;;;;;;14.43;11.43;;;31.30;30.10;;;;;;5124489;27;20027;-78
2022/08/07 12:21:39;;;;;;;23.02;15.82;;;31.20;30.60;;;;;;5123656;27;20047;-74
2022/08/07 12:24:24;;;;;;;9.00;7.18;;;31.20;30.60;;;;;;5123876;27;20015;-77
2022/08/07 12:26:57;;;;;;;9.20;5.82;;;31.30;30.80;;;;;;5119422;27;20039;-76
2022/08/07 12:29:37;;;;;;;;;;;31.30;30.00;;;;;;5124224;27;20047;-79
2022/08/07 12:32:13;;;;;;;8.73;5.93;;;31.30;30.90;;;;;;5124858;27;20387;-78
2022/08/07 12:34:41;;;;;;;16.58;12.32;;;31.40;30.20;;;;;;5123991;27;20080;-76
2022/08/07 12:37:10;;;;;;;13.80;10.90;;;31.50;29.90;;;;;;5122479;27;20107;-81
2022/08/07 12:39:38;;;;;;;7.82;6.03;;;31.70;30.40;;;;;;5124480;27;20036;-77
2022/08/07 12:42:06;;;;;;;11.85;7.18;;;31.80;30.00;;;;;;5118849;27;20114;-78
2022/08/07 12:44:34;;;;;;;7.40;5.05;;;31.90;29.80;;;;;;5124818;27;20019;-76
2022/08/07 12:47:13;;;;;;;6.53;5.18;;;32.10;29.60;;;;;;5123070;27;20019;-78
2022/08/07 12:49:47;;;;;;;11.82;7.72;;;32.20;29.80;;;;;;5122682;27;20106;-80
2022/08/07 12:52:17;;;;;;;8.63;6.30;;;32.30;29.30;;;;;;5125038;27;20019;-78
2022/08/07 12:54:56;;;;;;;6.72;4.18;;;32.30;28.80;;;;;;5113965;27;20015;-75
2022/08/07 12:57:29;;;;;;;6.10;3.03;;;32.30;29.30;;;;;;5124197;27;20430;-77
2022/08/07 12:59:58;;;;;;;7.40;3.20;;;32.40;29.20;;;;;;5123878;27;20103;-75
2022/08/07 13:02:55;;;;;;;4.60;1.90;;;32.40;29.10;;;;;;5119796;27;20011;-77
2022/08/07 13:05:51;;;;;;;12.85;9.60;;;32.30;28.90;;;;;;5124614;27;20026;-71
2022/08/07 13:08:37;;;;;;;18.38;14.45;;;32.30;29.50;;;;;;5124133;27;20016;-80
2022/08/07 13:11:25;;;;;;;17.55;11.23;;;32.20;29.00;;;;;;5123551;27;20095;-78
2022/08/07 13:14:20;;;;;;;9.23;6.20;;;32.00;29.00;;;;;;5123321;27;20596;-79
2022/08/07 13:16:59;;;;;;;17.95;11.05;;;31.80;29.20;;;;;;5120914;27;20027;-79
2022/08/07 13:19:50;;;;;;;8.90;6.80;;;31.70;28.90;;;;;;5122901;27;20076;-75
2022/08/07 13:22:50;;;;;;;31.35;22.88;;;31.40;29.20;;;;;;5123893;27;20090;-76
2022/08/07 13:25:30;;;;;;;15.50;10.95;;;31.30;29.50;;;;;;5114288;27;20043;-77
2022/08/07 13:28:18;;;;;;;12.07;7.32;;;31.10;29.50;;;;;;5122330;27;20417;-73